»·PEaware :: DAL1872 KSLC-KBZN

DAL1872 :: KSLC-KBZN

FLIGHT INFORMATION

Flight Status: Arrived
Operator:
Delta Air Lines
More flights by this operator :: More flights under this callsign
Pilot: Andrew J. (13363)
Aircraft: AIRBUS A320
(A320)
More flights by this aircraft type
Origin: KSLC Salt Lake City Intl
United States
Destination: KBZN Gallatin
United States
More flights between these airports :: More routes between these airports
Route: +RUGGD1 HOLTR JAC ZIPGO
File this flight plan on PilotEdge
Remarks:
Altitude:
(Current/Filed)
30,000ft
Speed:
(Current/Filed)
433kts
Departed: 17-Oct-19 02:06 PM
Arrived: 17-Oct-19 02:58 PM
Distance/Time
Traveled:
302nm/0:51
Distance/Time
To Go:
Arrived

Flight Plot

Page will automatically refresh every two minutes.

Flight plan parsing failed; only flown route is shown


Map Options




Map Legend


Flown Route
Filed Route
Departure Airport
Arrival Airport
Navaid (VOR, NDB)
Fix

Horizontal Profiles

Position Reports

Time Latitude Longitude Heading Altitude Ground
Speed
17-Oct-19 13:35 40.788538 -111.984311 251 4236ft 0kts
17-Oct-19 13:36 40.788538 -111.984311 251 4236ft 0kts
17-Oct-19 13:37 40.788538 -111.984311 251 4236ft 0kts
17-Oct-19 13:38 40.788538 -111.984311 251 4236ft 0kts
17-Oct-19 13:39 40.788538 -111.984311 251 4236ft 0kts
17-Oct-19 13:40 40.788538 -111.984311 251 4236ft 0kts
17-Oct-19 13:41 40.788538 -111.984311 251 4236ft 0kts
17-Oct-19 13:42 40.788538 -111.984311 251 4236ft 0kts
17-Oct-19 13:43 40.788538 -111.984311 251 4236ft 0kts
17-Oct-19 13:44 40.788538 -111.984311 251 4236ft 0kts
17-Oct-19 13:45 40.788538 -111.984311 251 4236ft 0kts
17-Oct-19 13:46 40.788538 -111.984311 251 4236ft 0kts
17-Oct-19 13:47 40.788538 -111.984311 251 4236ft 0kts
17-Oct-19 13:48 40.788538 -111.984311 251 4236ft 0kts
17-Oct-19 13:49 40.788538 -111.984311 251 4236ft 0kts
17-Oct-19 13:50 40.788538 -111.984310 251 4236ft 0kts
17-Oct-19 13:51 40.788689 -111.983687 270 4236ft 2kts
17-Oct-19 13:52 40.788765 -111.983452 339 4236ft 4kts
17-Oct-19 13:53 40.788864 -111.983493 342 4236ft 0kts
17-Oct-19 13:54 40.788864 -111.983494 342 4236ft 0kts
17-Oct-19 13:55 40.788864 -111.983494 342 4236ft 0kts
17-Oct-19 13:56 40.788864 -111.983493 342 4236ft 0kts
17-Oct-19 13:57 40.789116 -111.983597 342 4236ft 5kts
17-Oct-19 13:58 40.791492 -111.984370 40 4236ft 10kts
17-Oct-19 13:59 40.791915 -111.980009 84 4236ft 11kts
17-Oct-19 14:00 40.792969 -111.977432 354 4236ft 9kts
17-Oct-19 14:01 40.796232 -111.977807 356 4236ft 14kts
17-Oct-19 14:02 40.800948 -111.978364 355 4236ft 19kts
17-Oct-19 14:03 40.806750 -111.978595 359 4236ft 16kts
17-Oct-19 14:04 40.806504 -111.976813 174 4236ft 20kts
17-Oct-19 14:05 40.770304 -111.972640 177 5128ft 189kts
17-Oct-19 14:06 40.749042 -112.012207 303 7715ft 192kts
17-Oct-19 14:07 40.789249 -112.073624 307 9324ft 257kts
17-Oct-19 14:08 40.837604 -112.146756 307 10950ft 266kts
17-Oct-19 14:09 40.886935 -112.220422 307 11033ft 269kts
17-Oct-19 14:10 40.955347 -112.239272 36 11727ft 318kts
17-Oct-19 14:11 41.004712 -112.129484 63 12837ft 384kts
17-Oct-19 14:12 41.052409 -112.004646 65 14530ft 408kts
17-Oct-19 14:13 41.100620 -111.867467 66 16291ft 426kts
17-Oct-19 14:14 41.178978 -111.756528 8 17859ft 435kts
17-Oct-19 14:15 41.299391 -111.728683 6 19439ft 447kts
17-Oct-19 14:16 41.422865 -111.694471 13 20909ft 461kts
17-Oct-19 14:17 41.545933 -111.646136 13 22265ft 472kts
17-Oct-19 14:18 41.672840 -111.596215 13 23530ft 482kts
17-Oct-19 14:19 41.802849 -111.546457 7 24660ft 490kts
17-Oct-19 14:20 41.938140 -111.515573 5 25714ft 499kts
17-Oct-19 14:21 42.076393 -111.484268 5 26708ft 508kts
17-Oct-19 14:22 42.216300 -111.452437 5 27683ft 514kts
17-Oct-19 14:23 42.357565 -111.420030 5 28844ft 515kts
17-Oct-19 14:24 42.495380 -111.363431 19 29797ft 526kts
17-Oct-19 14:25 42.630102 -111.288309 19 30783ft 521kts
17-Oct-19 14:26 42.763591 -111.214468 19 30794ft 518kts
17-Oct-19 14:27 42.897114 -111.140253 19 30794ft 519kts
17-Oct-19 14:28 43.030449 -111.065814 19 30767ft 519kts
17-Oct-19 14:29 43.163483 -110.991189 19 30762ft 518kts
17-Oct-19 14:30 43.296395 -110.916282 19 30751ft 517kts
17-Oct-19 14:31 43.428843 -110.841279 19 30755ft 518kts
17-Oct-19 14:32 43.561890 -110.765597 19 30767ft 518kts
17-Oct-19 14:33 43.700521 -110.740521 348 30798ft 502kts
17-Oct-19 14:34 43.839070 -110.757139 348 30787ft 501kts
17-Oct-19 14:35 43.977469 -110.773394 348 30761ft 499kts
17-Oct-19 14:36 44.112942 -110.789351 348 29722ft 476kts
17-Oct-19 14:37 44.242002 -110.804668 348 28499ft 460kts
17-Oct-19 14:38 44.367774 -110.819632 348 27301ft 449kts
17-Oct-19 14:39 44.490894 -110.834346 348 26122ft 439kts
17-Oct-19 14:40 44.610828 -110.848746 348 24794ft 431kts
17-Oct-19 14:41 44.729807 -110.863088 348 22556ft 430kts
17-Oct-19 14:42 44.848623 -110.877459 349 20135ft 430kts
17-Oct-19 14:43 44.967553 -110.891912 349 17706ft 426kts
17-Oct-19 14:44 45.079317 -110.905500 348 17147ft 372kts
17-Oct-19 14:45 45.182010 -110.918202 349 16379ft 380kts
17-Oct-19 14:46 45.287038 -110.931033 349 14290ft 376kts
17-Oct-19 14:47 45.387962 -110.943476 349 13274ft 349kts
17-Oct-19 14:48 45.484751 -110.955511 350 12982ft 351kts
17-Oct-19 14:49 45.581599 -110.967509 350 12187ft 346kts
17-Oct-19 14:50 45.663936 -110.993752 310 10433ft 280kts
17-Oct-19 14:51 45.676576 -111.074626 217 8641ft 222kts
17-Oct-19 14:52 45.629275 -111.038548 92 7090ft 253kts
17-Oct-19 14:53 45.672505 -110.996969 319 6492ft 195kts
17-Oct-19 14:54 45.705898 -111.049231 303 6035ft 158kts
17-Oct-19 14:55 45.736078 -111.092298 304 5516ft 154kts
17-Oct-19 14:56 45.766010 -111.135663 307 4621ft 151kts
17-Oct-19 14:57 45.782759 -111.159086 308 4449ft 25kts
17-Oct-19 14:58 45.782048 -111.161411 226 4451ft 3kts
17-Oct-19 14:59 45.780007 -111.160816 195 4455ft 7kts
17-Oct-19 15:00 45.779401 -111.161443 225 4456ft 0kts
17-Oct-19 15:01 45.779401 -111.161443 225 4456ft 0kts

Navigation Log

Ident Type
Flight plan parsing failed, navigation log unavailable